createdAt,value
2023-03-15T00:00:01.608Z,5.43
2023-03-15T00:02:31.651Z,5.47
2023-03-15T00:05:01.937Z,5.45
2023-03-15T00:07:31.358Z,5.53
2023-03-15T00:10:01.267Z,5.51
2023-03-15T00:12:29.898Z,5.33
2023-03-15T00:14:58.612Z,5.51
2023-03-15T00:17:27.316Z,5.54
2023-03-15T00:19:56.108Z,5.50
2023-03-15T00:22:24.980Z,5.71
2023-03-15T00:24:53.670Z,5.65
2023-03-15T00:27:25.225Z,5.67
2023-03-15T00:29:53.990Z,5.55
2023-03-15T00:32:23.090Z,5.49
2023-03-15T00:34:53.544Z,5.42
2023-03-15T00:37:24.664Z,5.49
2023-03-15T00:39:55.307Z,5.63
2023-03-15T00:42:25.605Z,5.54
2023-03-15T00:44:57.488Z,5.59
2023-03-15T00:47:26.195Z,5.61
2023-03-15T00:49:54.831Z,5.70
2023-03-15T00:52:34.618Z,5.71
2023-03-15T00:55:02.892Z,5.73
2023-03-15T00:57:33.636Z,5.80
2023-03-15T01:00:03.948Z,5.70
2023-03-15T01:02:32.614Z,5.73
2023-03-15T01:05:01.941Z,5.74
2023-03-15T01:07:32.300Z,5.73
2023-03-15T01:10:02.195Z,5.90
2023-03-15T01:12:33.955Z,5.85
2023-03-15T01:15:04.892Z,5.76
2023-03-15T01:17:33.581Z,5.92
2023-03-15T01:20:02.311Z,6.04
2023-03-15T01:22:31.090Z,6.04
2023-03-15T01:24:59.781Z,6.04
2023-03-15T01:27:29.043Z,5.98
2023-03-15T01:29:57.702Z,5.85
2023-03-15T01:32:29.358Z,5.97
2023-03-15T01:34:58.038Z,5.97
2023-03-15T01:37:29.537Z,5.93
2023-03-15T01:39:58.399Z,5.91
2023-03-15T01:42:34.244Z,5.82
2023-03-15T01:45:02.911Z,5.74
2023-03-15T01:47:36.122Z,5.63
2023-03-15T01:50:07.790Z,5.56
2023-03-15T01:52:40.974Z,5.57
2023-03-15T01:55:15.760Z,5.50
2023-03-15T01:57:50.390Z,5.32
2023-03-15T02:00:22.633Z,5.24
2023-03-15T02:03:03.853Z,5.11
2023-03-15T02:05:35.702Z,4.97
2023-03-15T02:08:09.065Z,4.94
2023-03-15T02:10:44.136Z,4.96
2023-03-15T02:13:18.649Z,5.08
2023-03-15T02:15:49.362Z,5.00
2023-03-15T02:18:20.718Z,4.99
2023-03-15T02:21:05.674Z,4.92
2023-03-15T02:23:35.191Z,4.97
2023-03-15T02:26:13.001Z,4.72
2023-03-15T02:28:46.417Z,4.73
2023-03-15T02:31:18.866Z,4.70
2023-03-15T02:33:58.345Z,4.72
2023-03-15T02:36:31.462Z,4.72
2023-03-15T02:39:00.129Z,4.78
2023-03-15T02:41:37.977Z,4.87
2023-03-15T02:44:30.728Z,4.80
2023-03-15T02:47:05.891Z,4.86
2023-03-15T02:49:37.482Z,4.66
2023-03-15T02:52:07.673Z,4.73
2023-03-15T02:54:36.807Z,4.61
2023-03-15T02:57:10.353Z,4.52
2023-03-15T02:59:39.889Z,4.46
2023-03-15T03:02:14.842Z,4.38
2023-03-15T03:04:45.141Z,4.31
2023-03-15T03:07:13.865Z,4.35
2023-03-15T03:09:42.550Z,4.29
2023-03-15T03:12:11.449Z,4.27
2023-03-15T03:14:43.521Z,4.15
2023-03-15T03:17:12.241Z,4.19
2023-03-15T03:19:43.928Z,4.09
2023-03-15T03:22:16.998Z,4.13
2023-03-15T03:24:46.290Z,4.17
2023-03-15T03:27:15.754Z,4.24
2023-03-15T03:29:45.064Z,4.24
2023-03-15T03:32:16.192Z,4.28
2023-03-15T03:34:51.686Z,4.30
2023-03-15T03:37:23.410Z,4.33
2023-03-15T03:39:55.097Z,4.49
2023-03-15T03:42:23.884Z,4.56
2023-03-15T03:44:54.225Z,4.60
2023-03-15T03:47:26.664Z,4.66
2023-03-15T03:49:56.839Z,4.72
2023-03-15T03:52:27.134Z,4.74
2023-03-15T03:54:56.216Z,4.83
2023-03-15T03:57:24.862Z,4.89
2023-03-15T03:59:53.645Z,4.95
2023-03-15T04:02:22.729Z,4.83
2023-03-15T04:04:51.359Z,4.89
2023-03-15T04:07:20.019Z,5.01
2023-03-15T04:09:51.107Z,4.95
2023-03-15T04:12:19.892Z,4.86
2023-03-15T04:14:49.941Z,4.86
2023-03-15T04:17:18.553Z,4.85
2023-03-15T04:19:49.885Z,4.78
2023-03-15T04:22:18.508Z,4.71
2023-03-15T04:24:56.085Z,4.81
2023-03-15T04:27:24.761Z,4.83
2023-03-15T04:29:53.570Z,4.89
2023-03-15T04:32:22.137Z,4.87
2023-03-15T04:34:56.059Z,4.85
2023-03-15T04:37:24.769Z,4.82
2023-03-15T04:39:55.258Z,4.89
2023-03-15T04:42:26.534Z,4.97
2023-03-15T04:44:56.558Z,4.95
2023-03-15T04:47:25.290Z,5.06
2023-03-15T04:49:55.481Z,5.10
2023-03-15T04:52:24.332Z,5.17
2023-03-15T04:54:56.416Z,5.16
2023-03-15T04:57:26.423Z,5.15
2023-03-15T04:59:55.281Z,5.20
2023-03-15T05:02:26.830Z,5.19
2023-03-15T05:04:58.917Z,5.09
2023-03-15T05:07:28.069Z,5.08
2023-03-15T05:09:57.223Z,5.03
2023-03-15T05:12:26.099Z,5.09
2023-03-15T05:14:55.554Z,5.13
2023-03-15T05:17:24.621Z,5.23
2023-03-15T05:19:53.296Z,5.31
2023-03-15T05:22:23.676Z,5.21
2023-03-15T05:24:53.923Z,5.38
2023-03-15T05:27:22.585Z,5.33
2023-03-15T05:29:55.646Z,5.37
2023-03-15T05:32:26.058Z,5.41
2023-03-15T05:35:00.399Z,5.40
2023-03-15T05:37:29.158Z,5.55
2023-03-15T05:39:58.070Z,5.61
2023-03-15T05:42:28.826Z,5.67
2023-03-15T05:44:58.546Z,5.64
2023-03-15T05:47:31.110Z,5.67
2023-03-15T05:50:00.825Z,5.70
2023-03-15T05:52:31.968Z,5.69
2023-03-15T05:55:03.485Z,5.46
2023-03-15T05:57:33.618Z,5.39
2023-03-15T06:00:02.329Z,5.49
2023-03-15T06:02:31.124Z,5.64
2023-03-15T06:04:59.873Z,5.62
2023-03-15T06:07:28.850Z,5.53
2023-03-15T06:09:57.605Z,5.68
2023-03-15T06:12:27.587Z,5.88
2023-03-15T06:14:56.240Z,5.88
2023-03-15T06:17:24.922Z,6.16
2023-03-15T06:19:53.619Z,6.56
2023-03-15T06:22:23.992Z,6.90
2023-03-15T06:24:52.614Z,7.37
2023-03-15T06:27:32.574Z,7.37
2023-03-15T06:29:58.722Z,7.60
2023-03-15T06:32:27.453Z,7.50
2023-03-15T06:34:56.392Z,7.53
2023-03-15T06:37:34.738Z,7.19
2023-03-15T06:39:55.600Z,7.26
2023-03-15T06:42:24.302Z,7.56
2023-03-15T06:44:53.158Z,7.69
2023-03-15T06:47:23.582Z,8.13
2023-03-15T06:49:52.327Z,8.26
2023-03-15T06:52:22.638Z,8.38
2023-03-15T06:54:51.356Z,8.67
2023-03-15T06:57:19.991Z,8.92
2023-03-15T06:59:51.451Z,9.16
2023-03-15T07:02:23.979Z,8.94
2023-03-15T07:04:52.900Z,8.85
2023-03-15T07:07:21.645Z,8.53
2023-03-15T07:09:50.472Z,8.08
2023-03-15T07:12:21.003Z,7.93
2023-03-15T07:14:49.821Z,7.80
2023-03-15T07:17:18.630Z,7.99
2023-03-15T07:19:56.172Z,8.17
2023-03-15T07:22:19.804Z,8.32
2023-03-15T07:24:48.599Z,8.03
2023-03-15T07:27:19.306Z,8.35
2023-03-15T07:29:52.538Z,8.88
2023-03-15T07:32:21.197Z,9.39
2023-03-15T07:34:50.426Z,10.12
2023-03-15T07:37:19.592Z,10.27
2023-03-15T07:39:48.251Z,9.84
2023-03-15T07:42:17.168Z,9.54
2023-03-15T07:44:45.934Z,10.09
2023-03-15T07:47:14.560Z,10.67
2023-03-15T07:49:46.915Z,10.66
2023-03-15T07:52:15.743Z,10.72
2023-03-15T07:54:44.430Z,10.58
2023-03-15T07:57:17.529Z,10.91
2023-03-15T07:59:45.475Z,10.87
2023-03-15T08:02:16.147Z,10.19
2023-03-15T08:04:45.038Z,9.95
2023-03-15T08:07:13.724Z,10.19
2023-03-15T08:09:42.410Z,10.09
2023-03-15T08:12:13.350Z,10.20
2023-03-15T08:14:41.826Z,10.48
2023-03-15T08:17:12.169Z,10.69
2023-03-15T08:19:43.743Z,11.13
2023-03-15T08:22:14.969Z,11.07
2023-03-15T08:24:45.484Z,11.45
2023-03-15T08:27:17.748Z,12.01
2023-03-15T08:42:39.600Z,11.94
2023-03-15T08:45:22.116Z,11.51
2023-03-15T08:51:11.490Z,12.02
2023-03-15T08:57:25.280Z,12.89
2023-03-15T08:59:58.015Z,12.20
2023-03-15T09:09:17.434Z,11.47
2023-03-15T09:12:01.503Z,11.88
2023-03-15T09:14:38.960Z,12.71
2023-03-15T09:17:09.725Z,13.37
2023-03-15T09:19:40.632Z,13.04
2023-03-15T09:22:16.728Z,12.47
2023-03-15T09:24:40.837Z,12.61
2023-03-15T09:27:11.210Z,12.46
2023-03-15T09:29:40.747Z,12.56
2023-03-15T09:32:13.783Z,12.76
2023-03-15T09:34:43.265Z,13.08
2023-03-15T09:37:13.766Z,13.06
2023-03-15T09:39:42.454Z,12.71
2023-03-15T09:42:16.664Z,13.09
2023-03-15T09:45:09.112Z,13.21
2023-03-15T09:47:49.404Z,13.55
2023-03-15T09:50:33.345Z,13.90
2023-03-15T09:53:07.142Z,13.75
2023-03-15T09:55:47.140Z,13.99
2023-03-15T09:58:39.288Z,13.52
2023-03-15T10:01:14.474Z,13.53
2023-03-15T10:04:07.344Z,14.13
2023-03-15T10:09:32.208Z,13.11
2023-03-15T10:12:11.014Z,13.02
2023-03-15T10:15:27.868Z,13.08
2023-03-15T10:18:14.974Z,13.37
2023-03-15T10:20:53.422Z,13.89
2023-03-15T10:23:31.460Z,14.01
2023-03-15T10:26:09.885Z,14.33
2023-03-15T10:29:07.567Z,14.45
2023-03-15T10:31:45.096Z,15.03
2023-03-15T10:35:01.494Z,14.79
2023-03-15T10:37:39.383Z,14.86
2023-03-15T10:42:55.493Z,14.33
2023-03-15T10:45:30.797Z,14.50
2023-03-15T10:57:26.175Z,13.67
2023-03-15T11:03:38.605Z,14.30
2023-03-15T11:06:25.477Z,13.55
2023-03-15T11:08:58.921Z,13.92
2023-03-15T11:11:29.465Z,13.94
2023-03-15T11:14:01.740Z,13.43
2023-03-15T11:16:33.724Z,13.45
2023-03-15T11:19:14.085Z,13.53
2023-03-15T11:21:46.799Z,13.61
2023-03-15T11:24:21.545Z,13.73
2023-03-15T11:26:52.468Z,13.82
2023-03-15T11:29:28.492Z,14.05
2023-03-15T11:32:02.296Z,14.24
2023-03-15T11:34:55.630Z,14.29
2023-03-15T11:37:39.449Z,13.89
2023-03-15T11:40:26.319Z,14.04
2023-03-15T11:46:43.820Z,13.05
2023-03-15T11:49:28.714Z,13.98
2023-03-15T11:51:59.024Z,13.78
2023-03-15T11:54:32.535Z,14.15
2023-03-15T12:00:50.372Z,14.45
2023-03-15T12:03:36.614Z,14.65
2023-03-15T12:06:17.148Z,14.90
2023-03-15T12:08:50.993Z,15.15
2023-03-15T12:14:49.946Z,12.76
2023-03-15T12:20:48.153Z,13.64
2023-03-15T12:23:36.541Z,12.61
2023-03-15T12:26:26.246Z,12.13
2023-03-15T12:29:04.820Z,11.94
2023-03-15T12:32:08.128Z,12.09
2023-03-15T12:35:01.720Z,11.84
2023-03-15T12:37:42.553Z,11.43
2023-03-15T12:40:31.574Z,11.26
2023-03-15T12:43:03.539Z,11.72
2023-03-15T12:45:42.474Z,11.54
2023-03-15T12:48:18.442Z,11.61
2023-03-15T12:51:07.514Z,11.52
2023-03-15T12:54:22.255Z,11.44
2023-03-15T12:57:00.452Z,11.04
2023-03-15T13:03:19.079Z,10.94
2023-03-15T13:09:37.849Z,11.11
2023-03-15T13:15:36.848Z,11.27
2023-03-15T13:18:13.924Z,11.54
2023-03-15T13:20:45.563Z,12.18
2023-03-15T13:23:31.671Z,11.87
2023-03-15T13:26:17.127Z,12.58
2023-03-15T13:29:10.199Z,12.82
2023-03-15T13:31:41.210Z,13.47
2023-03-15T13:34:18.097Z,12.87
2023-03-15T13:36:56.908Z,12.72
2023-03-15T13:39:25.998Z,13.14
2023-03-15T13:42:27.507Z,12.87
2023-03-15T13:45:12.308Z,12.88
2023-03-15T13:47:46.532Z,13.51
2023-03-15T13:50:17.776Z,13.57
2023-03-15T13:52:48.096Z,13.19
2023-03-15T13:58:12.189Z,14.14
2023-03-15T14:00:41.660Z,14.09
2023-03-15T14:03:16.888Z,13.75
2023-03-15T14:05:51.505Z,13.19
2023-03-15T14:08:32.181Z,13.35
2023-03-15T14:11:22.473Z,12.77
2023-03-15T14:13:58.059Z,11.95
2023-03-15T14:16:57.340Z,11.89
2023-03-15T14:19:29.716Z,12.02
2023-03-15T14:22:01.540Z,11.72
2023-03-15T14:24:41.688Z,11.21
2023-03-15T14:27:21.693Z,11.13
2023-03-15T14:29:56.250Z,11.40
2023-03-15T14:32:41.520Z,11.54
2023-03-15T14:35:13.631Z,11.44
2023-03-15T14:37:44.538Z,10.98
2023-03-15T14:40:16.403Z,11.10
2023-03-15T14:42:46.615Z,11.04
2023-03-15T14:45:16.342Z,10.74
2023-03-15T14:47:56.809Z,11.02
2023-03-15T14:50:24.181Z,10.63
2023-03-15T14:52:54.402Z,10.77
2023-03-15T14:55:33.770Z,10.68
2023-03-15T14:58:03.887Z,10.46
2023-03-15T15:00:35.162Z,10.47
2023-03-15T15:03:05.603Z,10.60
2023-03-15T15:05:36.728Z,10.67
2023-03-15T15:08:14.226Z,10.59
2023-03-15T15:10:44.975Z,10.51
2023-03-15T15:13:27.154Z,10.40
2023-03-15T15:15:57.110Z,10.38
2023-03-15T15:18:40.673Z,10.30
2023-03-15T15:27:25.730Z,10.35
2023-03-15T15:40:47.064Z,9.69
2023-03-15T15:43:15.984Z,9.67
2023-03-15T15:45:44.771Z,9.57
2023-03-15T15:48:13.496Z,9.49
2023-03-15T15:50:42.161Z,9.49
2023-03-15T15:53:13.891Z,9.56
2023-03-15T15:55:44.289Z,9.43
2023-03-15T15:58:14.095Z,9.34
2023-03-15T16:00:42.752Z,9.34
2023-03-15T16:03:15.623Z,9.37
2023-03-15T16:05:44.497Z,9.46
2023-03-15T16:08:19.275Z,9.53
2023-03-15T16:14:28.948Z,9.35
2023-03-15T16:16:57.703Z,9.20
2023-03-15T16:19:26.385Z,9.14
2023-03-15T16:21:55.124Z,9.17
2023-03-15T16:24:27.060Z,9.24
2023-03-15T16:26:58.679Z,9.25
2023-03-15T16:29:30.462Z,9.27
2023-03-15T16:32:10.172Z,9.23
2023-03-15T16:34:29.946Z,9.16
2023-03-15T16:36:58.755Z,8.99
2023-03-15T16:39:27.545Z,8.99
2023-03-15T16:41:56.250Z,8.85
2023-03-15T16:44:25.042Z,8.84
2023-03-15T16:46:53.936Z,8.81
2023-03-15T16:49:23.144Z,8.90
2023-03-15T16:55:34.061Z,8.86
2023-03-15T16:58:05.142Z,8.82
2023-03-15T17:00:34.161Z,8.69
2023-03-15T17:03:04.572Z,8.66
2023-03-15T17:05:34.491Z,8.71
2023-03-15T17:08:04.237Z,8.67
2023-03-15T17:10:33.790Z,8.52
2023-03-15T17:13:26.026Z,8.53
2023-03-15T17:15:33.875Z,8.52
2023-03-15T17:18:02.934Z,8.45
2023-03-15T17:20:31.867Z,8.57
2023-03-15T17:23:04.344Z,8.62
2023-03-15T17:25:34.531Z,8.73
2023-03-15T17:28:06.632Z,8.70
2023-03-15T17:30:41.518Z,8.63
2023-03-15T17:46:33.527Z,8.65
2023-03-15T17:49:06.092Z,8.49
2023-03-15T17:51:37.502Z,8.43
2023-03-15T17:54:18.291Z,8.53
2023-03-15T17:56:47.059Z,8.64
2023-03-15T17:59:15.645Z,8.47
2023-03-15T18:01:46.518Z,8.56
2023-03-15T18:04:17.131Z,8.64
2023-03-15T18:06:47.568Z,8.73
2023-03-15T18:09:17.854Z,8.53
2023-03-15T18:11:46.973Z,8.21
2023-03-15T18:14:25.952Z,8.29
2023-03-15T18:16:54.839Z,8.12
2023-03-15T18:19:29.648Z,7.98
2023-03-15T18:21:55.818Z,7.84
2023-03-15T18:24:31.553Z,7.90
2023-03-15T18:27:05.001Z,7.80
2023-03-15T18:29:36.618Z,7.82
2023-03-15T18:32:21.191Z,7.86
2023-03-15T18:34:49.218Z,7.77
2023-03-15T18:37:17.898Z,7.71
2023-03-15T18:39:49.640Z,7.51
2023-03-15T18:46:27.101Z,7.61
2023-03-15T18:48:57.336Z,7.47
2023-03-15T18:51:46.377Z,7.49
2023-03-15T18:54:18.083Z,7.50
2023-03-15T18:56:51.112Z,7.46
2023-03-15T18:59:23.185Z,7.35
2023-03-15T19:01:53.599Z,7.23
2023-03-15T19:04:26.737Z,7.18
2023-03-15T19:06:58.142Z,7.22
2023-03-15T19:09:34.315Z,7.38
2023-03-15T19:15:44.117Z,7.42
2023-03-15T19:18:13.013Z,7.40
2023-03-15T19:20:43.577Z,7.45
2023-03-15T19:23:15.566Z,7.38
2023-03-15T19:25:47.613Z,7.37
2023-03-15T19:28:20.069Z,7.32
2023-03-15T19:30:50.031Z,7.21
2023-03-15T19:33:23.448Z,7.15
2023-03-15T19:35:57.297Z,7.15
2023-03-15T19:38:31.495Z,7.21
2023-03-15T19:41:03.634Z,7.24
2023-03-15T19:43:38.359Z,7.19
2023-03-15T19:46:08.675Z,7.24
2023-03-15T19:48:51.793Z,7.22
2023-03-15T19:51:24.033Z,7.12
2023-03-15T20:12:41.105Z,7.12
2023-03-15T20:39:13.675Z,6.95
2023-03-15T20:41:44.236Z,6.77
2023-03-15T20:44:12.976Z,6.65
2023-03-15T20:46:44.718Z,6.58
2023-03-15T20:49:14.405Z,6.55
2023-03-15T20:51:47.343Z,6.47
2023-03-15T20:54:16.062Z,6.44
2023-03-15T20:56:46.562Z,6.34
2023-03-15T20:59:23.958Z,5.97
2023-03-15T21:02:04.213Z,5.85
2023-03-15T21:04:45.954Z,5.69
2023-03-15T21:07:19.109Z,5.41
2023-03-15T21:09:55.900Z,5.04
2023-03-15T21:12:34.454Z,4.99
2023-03-15T21:15:07.598Z,4.82
2023-03-15T21:17:36.664Z,4.66
2023-03-15T21:20:07.722Z,4.56
2023-03-15T21:22:36.682Z,4.39
2023-03-15T21:25:08.208Z,4.39
2023-03-15T21:27:39.769Z,4.31
2023-03-15T21:30:15.425Z,4.07
2023-03-15T21:32:45.113Z,3.93
2023-03-15T21:35:17.310Z,3.93
2023-03-15T21:37:49.147Z,3.83
2023-03-15T21:40:18.344Z,3.80
2023-03-15T21:42:53.730Z,3.72
2023-03-15T21:45:23.446Z,3.72
2023-03-15T21:47:58.409Z,3.75
2023-03-15T21:50:31.645Z,3.69
2023-03-15T21:53:02.437Z,3.74
2023-03-15T21:55:33.841Z,3.64
2023-03-15T21:58:07.637Z,3.53
2023-03-15T22:00:41.896Z,3.48
2023-03-15T22:03:12.166Z,3.33
2023-03-15T22:05:42.895Z,3.33
2023-03-15T22:08:11.568Z,3.36
2023-03-15T22:10:40.692Z,3.28
2023-03-15T22:13:09.288Z,3.28
2023-03-15T22:15:37.991Z,3.24
2023-03-15T22:18:06.743Z,3.27
2023-03-15T22:20:35.273Z,3.27
2023-03-15T22:23:04.807Z,3.31
2023-03-15T22:25:42.235Z,3.19
2023-03-15T22:28:10.349Z,3.23
2023-03-15T22:30:41.925Z,3.08
2023-03-15T22:33:11.905Z,3.18
2023-03-15T22:35:43.801Z,3.22
2023-03-15T22:38:15.839Z,3.26
2023-03-15T22:40:44.643Z,3.15
2023-03-15T22:43:13.313Z,3.27
2023-03-15T22:45:45.243Z,3.28
2023-03-15T22:48:15.335Z,3.21
2023-03-15T22:50:51.407Z,3.06
2023-03-15T22:53:23.151Z,3.06
2023-03-15T22:55:54.576Z,3.12
2023-03-15T22:58:25.123Z,2.98
2023-03-15T23:00:56.818Z,2.93
2023-03-15T23:03:26.453Z,2.93
2023-03-15T23:05:56.578Z,2.94
2023-03-15T23:08:27.309Z,2.92
2023-03-15T23:10:58.725Z,2.85
2023-03-15T23:13:43.554Z,2.63
2023-03-15T23:16:12.159Z,2.84
2023-03-15T23:18:44.999Z,2.80
2023-03-15T23:21:17.261Z,2.74
2023-03-15T23:27:14.397Z,2.79
2023-03-15T23:29:54.200Z,2.75
2023-03-15T23:32:15.144Z,2.79
2023-03-15T23:34:45.655Z,2.73
2023-03-15T23:37:16.115Z,2.57
2023-03-15T23:39:50.194Z,2.52
2023-03-15T23:42:18.944Z,2.40
2023-03-15T23:44:54.125Z,2.34
2023-03-15T23:47:27.114Z,2.39
2023-03-15T23:49:57.017Z,2.32
2023-03-15T23:52:27.541Z,2.39
2023-03-15T23:54:59.380Z,2.43
2023-03-15T23:57:30.624Z,2.43
2023-03-15T23:59:59.339Z,2.32
